Concordia, Missouri
Current Conditions -  °F | °C
As of 1:58 AM on Wednesday 26 Nov 2014 (Local Time) from KSZL Reporting Station
Broken Clouds Broken Clouds  
Wind Chill: 28°   Ceiling: 9000
Heat Index: 34°   Visibility: 10mi
Dew Point: 22°   Wind: 8mph
Humidity: 60%   Direction: 170°S
Pressure: 29.97"   Gusts: NA
Location:  38.98°N, 93.57°W
Report Text: KSZL 260758Z AUTO 17007KT 10SM BKN090 01/M06 A2997 RMK AO2 SLP158 T00131058 $
Loading
Personal Weather Stations






























Interactive Weather Map New forecast layout! Learn more

10-Day Weather Forecast

Advertisements
Track Severe Weather on mobile